Etusivu
METAR-TAF:

METAR-TAF

Lentoasemat :

Chetwynd, Brittiläinen Kolumbia, Kanada

Leveyspiiri: 55-42N, Pituuspiiri: 121-38W, korkeus merenpinnasta: 609 m

Tämänhetkinen sää

Tämä raportti tehtiin 22 minuuttia sitten, kello 16.00 UTC
Tuuli 7 kn lounaasta
Lämpötila 4°C
Kosteus 56%
Ilmanpaine 1011 hPa
Näkyvyys: 56.3 km
Muutamia pilviä 4000 ft:n korkeudessa
Hajanaisia pilviä 11000 ft:n korkeudessa
Hajonneita pilviä 20000 ft:n korkeudessa

METAR: CYCQ 181600Z 22007KT 35SM FEW040 SCT110 BKN200 04/M04 A2984 RMK SC1AC2CI2 SLP127

Aika: 09:22 (16:22 UTC)


TAF: puuttuu

Säähavainnot ja -ennusteet yli 4000 lentoasemalta (METAR- ja TAF-raportit).

Käytössä olevat sääasemat on merkitty karttaan keltaisilla ja punaisilla pisteillä.

Aseta hiiri pisteen päälle nähdäksesi sääaseman nimen.

Klikkaa sitten nähdäksesi säähavainnot ja -ennusteet.

Kartan vaihtaminen: klikkaa mustalla rastilla varustettuja vihreitä pisteitä, niin voit zoomata sisään; viivalla varustettua vihreää pistettä, niin voit zoomata ulos tai vihreitä nuolia, niin pääset viereisille kartoille.


METAR-TAF: